Terminal Aerodrome Forecast
Issued by NWS Charleston, WV

Current Version | Previous Version | Graphics & Text | Print | Product List | Glossary On
Versions: 1 2 3 4 5 6 7 8 9 10 11 12 13 14 15 16 17 18 19 20 21
000
FTUS41 KRLX 171700
TAFPKB
TAF
KPKB 171736Z 1718/1818 VRB03KT P6SM SCT035 BKN050
     FM180400 00000KT 4SM BR SCT045
     FM180500 00000KT 1SM BR SCT001 BKN045
     FM180600 00000KT 1/2SM FG VV001
     FM181300 00000KT 2SM BR BKN003
     FM181400 02004KT P6SM SCT045=

USA.gov is the U.S. government's official web portal to all federal, state and local government web resources and services.